Time;durP1;ratioP1;P1;durP2;ratioP2;P2;SDS_P1;SDS_P2;PMS_P1;PMS_P2;Temp;Humidity;BMP_temperature;BMP_pressure;BME280_temperature;BME280_humidity;BME280_pressure;Samples;Min_cycle;Max_cycle;Signal;HPM_P1;HPM_P2
2023/09/05 00:00:10;;;;;;;2.92;1.45;;;;;;;19.39;63.60;99955.75;336073;28;18937;-67
2023/09/05 00:00:26;;;;;;;3.17;1.70;;;;;;;19.36;64.00;99953.31;337462;28;13475;-67
2023/09/05 00:00:39;;;;;;;2.95;1.60;;;;;;;19.33;63.76;99953.50;338562;28;12078;-68
2023/09/05 00:00:51;;;;;;;2.75;1.50;;;;;;;19.31;63.93;99955.41;338943;28;19404;-68
2023/09/05 00:01:03;;;;;;;2.72;1.70;;;;;;;19.32;63.78;99959.75;340500;28;5228;-68
2023/09/05 00:01:16;;;;;;;2.25;1.70;;;;;;;19.31;63.66;99961.50;337234;28;17075;-68
2023/09/05 00:01:29;;;;;;;1.83;1.55;;;;;;;19.32;63.86;99962.38;340243;28;4649;-67
2023/09/05 00:01:42;;;;;;;2.00;1.52;;;;;;;19.32;63.81;99962.38;334759;28;18252;-67
2023/09/05 00:01:54;;;;;;;2.30;1.45;;;;;;;19.31;63.77;99955.41;337759;28;19469;-67
2023/09/05 00:02:07;;;;;;;2.25;1.45;;;;;;;19.33;63.81;99966.69;340161;28;5201;-68
2023/09/05 00:02:20;;;;;;;2.30;1.42;;;;;;;19.34;63.82;99952.59;337772;28;18234;-68
2023/09/05 00:02:32;;;;;;;1.90;1.33;;;;;;;19.33;63.82;99950.88;340364;28;4772;-67
2023/09/05 00:02:48;;;;;;;1.98;1.40;;;;;;;19.33;63.73;99958.78;337957;28;18083;-68
2023/09/05 00:03:00;;;;;;;1.83;1.42;;;;;;;19.33;63.67;99956.16;338095;28;17987;-68
2023/09/05 00:03:12;;;;;;;1.90;1.42;;;;;;;19.34;63.60;99957.84;339054;28;5320;-68
2023/09/05 00:03:25;;;;;;;1.70;1.25;;;;;;;19.34;63.56;99955.22;337383;28;18009;-68
2023/09/05 00:03:37;;;;;;;1.70;1.13;;;;;;;19.34;63.41;99957.84;339232;28;17750;-67
2023/09/05 00:03:50;;;;;;;2.10;1.30;;;;;;;19.32;63.30;99955.31;334437;28;5450;-67
2023/09/05 00:04:02;;;;;;;2.13;1.50;;;;;;;19.31;63.36;99964.16;336239;28;18206;-67
2023/09/05 00:04:14;;;;;;;2.22;1.50;;;;;;;19.30;63.61;99956.34;340351;28;4526;-67
2023/09/05 00:04:28;;;;;;;2.47;1.50;;;;;;;19.30;63.45;99956.34;337421;28;16718;-67
2023/09/05 00:04:44;;;;;;;3.42;1.50;;;;;;;19.30;63.34;99956.34;337823;28;11689;-68
2023/09/05 00:04:57;;;;;;;2.75;1.40;;;;;;;19.29;63.36;99952.00;337250;28;18507;-68
2023/09/05 00:05:09;;;;;;;1.73;1.30;;;;;;;19.28;63.54;99953.81;340230;28;4572;-68
2023/09/05 00:05:23;;;;;;;2.33;1.40;;;;;;;19.29;63.32;99959.91;336304;28;13490;-67
2023/09/05 00:05:35;;;;;;;2.97;1.52;;;;;;;19.29;63.39;99959.91;339526;28;4649;-67
2023/09/05 00:05:48;;;;;;;2.80;1.57;;;;;;;19.30;63.48;99956.34;336418;28;18311;-68
2023/09/05 00:06:04;;;;;;;1.98;1.50;;;;;;;19.31;63.36;99960.66;340178;28;4641;-68
2023/09/05 00:06:16;;;;;;;1.95;1.52;;;;;;;19.29;63.33;99960.75;331831;28;18356;-68
2023/09/05 00:06:28;;;;;;;2.17;1.58;;;;;;;19.28;63.25;99961.72;338719;28;4671;-68
2023/09/05 00:06:41;;;;;;;2.30;1.70;;;;;;;19.28;63.28;99963.53;336439;28;4797;-68
2023/09/05 00:06:53;;;;;;;2.08;1.50;;;;;;;19.26;63.24;99955.69;339154;28;18420;-68
2023/09/05 00:07:05;;;;;;;1.90;1.52;;;;;;;19.26;63.31;99958.34;339968;28;4579;-67
2023/09/05 00:07:18;;;;;;;2.45;1.63;;;;;;;19.26;63.37;99960.13;332909;28;17922;-67
2023/09/05 00:07:31;;;;;;;2.78;1.50;;;;;;;19.27;63.36;99961.81;337977;28;5581;-67
2023/09/05 00:07:44;;;;;;;2.83;1.35;;;;;;;19.27;63.24;99953.91;339732;28;4668;-67
2023/09/05 00:07:56;;;;;;;2.35;1.30;;;;;;;19.27;63.16;99956.53;337582;28;18311;-68
2023/09/05 00:08:10;;;;;;;1.90;1.40;;;;;;;19.24;63.20;99957.59;340386;28;5579;-68
2023/09/05 00:08:22;;;;;;;2.03;1.58;;;;;;;19.26;63.12;99965.41;335254;28;5205;-68
2023/09/05 00:08:35;;;;;;;2.15;1.70;;;;;;;19.25;63.01;99961.91;340394;28;5299;-67
2023/09/05 00:08:47;;;;;;;2.17;1.60;;;;;;;19.25;63.12;99958.44;336847;28;4737;-67
2023/09/05 00:08:58;;;;;;;1.83;1.33;;;;;;;19.25;63.12;99963.69;340382;28;4624;-68
2023/09/05 00:09:11;;;;;;;1.42;1.23;;;;;;;19.24;63.09;99960.22;340687;28;5541;-68
2023/09/05 00:09:23;;;;;;;3.22;1.25;;;;;;;19.23;63.06;99961.16;337832;28;18496;-68
2023/09/05 00:09:36;;;;;;;3.45;1.33;;;;;;;19.24;63.05;99964.66;335963;28;4588;-68
2023/09/05 00:09:48;;;;;;;3.92;1.38;;;;;;;19.22;63.11;99963.91;332472;28;18173;-68
2023/09/05 00:10:01;;;;;;;2.90;1.50;;;;;;;19.23;63.22;99965.59;339419;28;4831;-68
2023/09/05 00:10:13;;;;;;;2.30;1.60;;;;;;;19.24;63.12;99965.50;336970;28;18424;-66
2023/09/05 00:10:25;;;;;;;1.80;1.35;;;;;;;19.25;63.06;99966.34;340494;28;5288;-66
2023/09/05 00:10:37;;;;;;;1.88;1.30;;;;;;;19.24;63.23;99957.59;340522;28;4549;-66
2023/09/05 00:10:49;;;;;;;1.92;1.33;;;;;;;19.23;63.28;99961.16;337827;28;19340;-67
2023/09/05 00:11:01;;;;;;;2.17;1.50;;;;;;;19.23;63.34;99957.69;340012;28;4582;-67
2023/09/05 00:11:14;;;;;;;2.10;1.50;;;;;;;19.21;63.23;99955.13;337359;28;11900;-67
2023/09/05 00:11:26;;;;;;;2.40;1.60;;;;;;;19.23;63.20;99955.03;335792;28;4685;-67
2023/09/05 00:11:38;;;;;;;3.28;1.52;;;;;;;19.24;63.27;99959.38;340571;28;4756;-67
2023/09/05 00:11:50;;;;;;;3.30;1.60;;;;;;;19.24;63.22;99956.75;337447;28;19611;-67
2023/09/05 00:12:04;;;;;;;3.42;1.60;;;;;;;19.24;63.26;99957.59;339829;28;4491;-67
2023/09/05 00:12:16;;;;;;;2.55;1.58;;;;;;;19.24;63.14;99956.75;337634;28;18012;-67
2023/09/05 00:12:27;;;;;;;2.08;1.52;;;;;;;19.24;63.30;99956.75;340093;28;5332;-67
2023/09/05 00:12:41;;;;;;;1.67;1.42;;;;;;;19.24;63.34;99964.66;337776;28;17679;-67
2023/09/05 00:12:53;;;;;;;1.60;1.40;;;;;;;19.25;63.35;99963.69;337709;28;4812;-67
2023/09/05 00:13:05;;;;;;;1.63;1.40;;;;;;;19.24;63.33;99957.59;339751;28;4709;-67
2023/09/05 00:13:17;;;;;;;2.60;1.50;;;;;;;19.25;63.29;99961.06;340255;28;4656;-67
2023/09/05 00:13:29;;;;;;;3.58;1.60;;;;;;;19.24;63.21;99960.22;337660;28;18011;-67
2023/09/05 00:13:42;;;;;;;2.80;1.50;;;;;;;19.24;63.31;99956.75;340000;28;5331;-67
2023/09/05 00:13:54;;;;;;;2.42;1.40;;;;;;;19.24;63.30;99959.38;337409;28;18352;-67
2023/09/05 00:14:06;;;;;;;3.38;1.40;;;;;;;19.24;63.34;99957.59;340010;28;5396;-67
2023/09/05 00:14:20;;;;;;;3.00;1.30;;;;;;;19.22;63.40;99953.38;340080;28;4699;-67
2023/09/05 00:14:32;;;;;;;2.10;1.50;;;;;;;19.22;63.42;99953.38;336997;28;19296;-67
2023/09/05 00:14:44;;;;;;;2.03;1.55;;;;;;;19.22;63.33;99956.00;337477;28;11717;-66
2023/09/05 00:14:57;;;;;;;1.58;1.33;;;;;;;19.21;63.45;99962.19;338647;28;4530;-67
2023/09/05 00:15:11;;;;;;;1.92;1.33;;;;;;;19.20;63.38;99955.25;340197;28;5168;-67
2023/09/05 00:15:24;;;;;;;2.50;1.45;;;;;;;19.19;63.45;99948.28;337715;28;17603;-67
2023/09/05 00:15:36;;;;;;;2.70;1.50;;;;;;;19.18;63.51;99957.97;336785;28;18280;-67
2023/09/05 00:15:48;;;;;;;2.47;1.60;;;;;;;19.19;63.55;99961.44;335402;28;5250;-67
2023/09/05 00:16:00;;;;;;;1.90;1.52;;;;;;;19.16;63.58;99955.44;337247;28;12059;-68
2023/09/05 00:16:12;;;;;;;1.83;1.40;;;;;;;19.15;63.67;99959.00;340144;28;5190;-67
2023/09/05 00:16:24;;;;;;;1.90;1.30;;;;;;;19.15;63.78;99953.72;339002;28;4750;-66
2023/09/05 00:16:37;;;;;;;1.90;1.33;;;;;;;19.13;63.69;99955.63;336851;28;17005;-67
2023/09/05 00:16:50;;;;;;;1.58;1.45;;;;;;;19.13;63.65;99949.50;340381;28;4517;-66
2023/09/05 00:17:02;;;;;;;1.77;1.55;;;;;;;19.13;63.69;99950.34;337523;28;18308;-68
2023/09/05 00:17:14;;;;;;;3.03;1.70;;;;;;;19.13;63.73;99950.34;340439;28;5288;-68
2023/09/05 00:17:26;;;;;;;2.88;1.58;;;;;;;19.14;63.88;99952.06;338100;28;17353;-68
2023/09/05 00:17:40;;;;;;;2.65;1.50;;;;;;;19.14;63.79;99951.22;340601;28;5454;-67
2023/09/05 00:17:52;;;;;;;2.97;1.38;;;;;;;19.14;63.91;99951.22;337339;28;19315;-67
2023/09/05 00:18:04;;;;;;;2.95;1.25;;;;;;;19.14;63.86;99952.06;339739;28;4639;-66
2023/09/05 00:18:16;;;;;;;2.58;1.20;;;;;;;19.14;63.86;99952.06;336792;28;18925;-67
2023/09/05 00:18:29;;;;;;;1.30;1.10;;;;;;;19.14;63.76;99952.06;336727;28;5447;-67
2023/09/05 00:18:43;;;;;;;1.27;1.17;;;;;;;19.13;63.83;99950.34;332920;28;18012;-68
2023/09/05 00:18:55;;;;;;;1.77;1.25;;;;;;;19.12;63.90;99953.94;340225;28;4694;-68
2023/09/05 00:19:07;;;;;;;2.03;1.33;;;;;;;19.12;63.86;99953.94;336947;28;17909;-68
2023/09/05 00:19:19;;;;;;;2.10;1.40;;;;;;;19.10;63.91;99955.81;340502;28;4512;-67
2023/09/05 00:19:32;;;;;;;1.42;1.30;;;;;;;19.09;64.00;99953.28;337583;28;18234;-68
2023/09/05 00:19:44;;;;;;;1.65;1.38;;;;;;;19.08;64.09;99947.19;339282;28;4612;-67
2023/09/05 00:19:56;;;;;;;1.75;1.50;;;;;;;19.07;63.93;99950.72;339779;28;12050;-67
2023/09/05 00:20:08;;;;;;;2.25;1.60;;;;;;;19.09;64.02;99954.13;336805;28;18784;-68
2023/09/05 00:20:20;;;;;;;2.22;1.45;;;;;;;19.08;64.02;99956.88;335261;28;5778;-67
2023/09/05 00:20:32;;;;;;;2.25;1.50;;;;;;;19.08;64.16;99948.97;337065;28;5497;-67
2023/09/05 00:20:45;;;;;;;1.80;1.50;;;;;;;19.08;64.01;99946.34;339237;28;4486;-68
2023/09/05 00:20:57;;;;;;;1.90;1.50;;;;;;;19.08;64.14;99951.59;337185;28;17766;-68
2023/09/05 00:21:10;;;;;;;1.63;1.38;;;;;;;19.07;64.12;99950.72;340027;28;5428;-68
2023/09/05 00:21:23;;;;;;;1.85;1.50;;;;;;;19.06;64.18;99949.06;337594;28;18322;-67
2023/09/05 00:21:35;;;;;;;2.03;1.45;;;;;;;19.06;64.18;99954.31;335210;28;4516;-66
2023/09/05 00:21:47;;;;;;;1.95;1.40;;;;;;;19.06;64.19;99946.44;337165;28;17522;-66
2023/09/05 00:21:59;;;;;;;2.10;1.40;;;;;;;19.07;64.10;99948.09;340298;28;4627;-67
2023/09/05 00:22:12;;;;;;;2.55;1.50;;;;;;;19.07;64.13;99953.38;329830;28;5661;-67
2023/09/05 00:22:24;;;;;;;2.80;1.60;;;;;;;19.06;64.03;99949.06;340247;28;5465;-67
2023/09/05 00:22:36;;;;;;;2.72;1.60;;;;;;;19.07;64.10;99948.09;340056;28;4668;-67
2023/09/05 00:22:48;;;;;;;1.92;1.30;;;;;;;19.08;64.05;99952.44;336905;28;18191;-66
2023/09/05 00:23:00;;;;;;;1.75;1.40;;;;;;;19.08;64.07;99947.19;338284;28;5618;-66
2023/09/05 00:23:12;;;;;;;1.55;1.42;;;;;;;19.07;64.08;99942.00;339363;28;4544;-67
2023/09/05 00:23:24;;;;;;;1.70;1.45;;;;;;;19.08;64.24;99957.72;338316;28;18296;-67
2023/09/05 00:23:39;;;;;;;1.63;1.38;;;;;;;19.07;64.11;99942.84;340111;28;4549;-66
2023/09/05 00:23:51;;;;;;;1.95;1.50;;;;;;;19.06;64.18;99942.94;337856;28;18087;-67
2023/09/05 00:24:25;;;;;;;2.30;1.50;;;;;;;19.06;64.17;99942.94;338023;28;5251;-68
2023/09/05 00:24:38;;;;;;;1.80;1.42;;;;;;;19.04;64.37;99948.31;332634;28;16461;-67
2023/09/05 00:24:50;;;;;;;1.67;1.38;;;;;;;19.04;64.41;99945.69;340187;28;4555;-67
2023/09/05 00:25:02;;;;;;;1.45;1.20;;;;;;;19.04;64.52;99940.41;340554;28;5533;-67
2023/09/05 00:25:17;;;;;;;1.77;1.40;;;;;;;19.03;64.50;99949.25;337630;28;19070;-67
2023/09/05 00:25:29;;;;;;;1.90;1.40;;;;;;;19.04;64.58;99944.84;337801;28;18700;-67
2023/09/05 00:25:41;;;;;;;1.90;1.35;;;;;;;19.04;64.50;99940.41;340390;28;4666;-66
2023/09/05 00:25:53;;;;;;;1.67;1.40;;;;;;;19.03;64.46;99949.25;339763;28;18104;-66
2023/09/05 00:26:05;;;;;;;1.95;1.40;;;;;;;19.02;64.60;99942.28;332433;28;18142;-67
2023/09/05 00:26:17;;;;;;;1.92;1.30;;;;;;;19.00;64.51;99945.97;340644;28;5413;-67
2023/09/05 00:26:29;;;;;;;2.35;1.38;;;;;;;18.99;64.57;99942.47;336591;28;19060;-67
2023/09/05 00:26:45;;;;;;;2.95;1.67;;;;;;;19.00;64.65;99943.34;338268;28;4799;-68
2023/09/05 00:27:02;;;;;;;2.40;1.60;;;;;;;18.99;64.43;99937.19;337302;28;18069;-67
2023/09/05 00:27:14;;;;;;;2.00;1.50;;;;;;;18.99;64.58;99945.09;337897;28;17963;-67
2023/09/05 00:27:26;;;;;;;1.90;1.50;;;;;;;19.00;64.51;99943.34;340199;28;5605;-67
2023/09/05 00:27:40;;;;;;;2.15;1.60;;;;;;;18.99;64.57;99942.47;339821;28;4592;-67
2023/09/05 00:27:52;;;;;;;2.30;1.60;;;;;;;18.98;64.43;99940.78;336477;28;19120;-67
2023/09/05 00:28:04;;;;;;;2.10;1.60;;;;;;;18.98;64.52;99940.78;339846;28;4679;-67
2023/09/05 00:28:19;;;;;;;2.25;1.50;;;;;;;18.98;64.40;99951.34;337703;28;18269;-67
2023/09/05 00:28:31;;;;;;;2.53;1.55;;;;;;;18.96;64.45;99947.94;337762;28;17847;-68
2023/09/05 00:28:43;;;;;;;2.05;1.50;;;;;;;18.96;64.31;99942.69;339614;28;5335;-68
2023/09/05 00:28:56;;;;;;;1.95;1.55;;;;;;;18.95;63.97;99946.25;337102;28;12306;-67
2023/09/05 00:29:08;;;;;;;2.05;1.50;;;;;;;18.96;64.26;99942.69;339311;28;4888;-67
2023/09/05 00:29:20;;;;;;;2.30;1.60;;;;;;;18.96;64.18;99947.94;334595;28;5377;-67
2023/09/05 00:29:33;;;;;;;2.15;1.30;;;;;;;18.95;64.37;99940.97;336539;28;18626;-67
2023/09/05 00:29:45;;;;;;;2.00;1.35;;;;;;;18.96;64.35;99942.69;338917;28;6374;-67
2023/09/05 00:29:57;;;;;;;1.85;1.45;;;;;;;18.95;64.52;99946.25;337627;28;18398;-67
2023/09/05 00:30:12;;;;;;;1.88;1.52;;;;;;;18.95;64.68;99951.50;340428;28;4594;-67
2023/09/05 00:30:24;;;;;;;2.03;1.40;;;;;;;18.94;64.61;99948.03;337604;28;18652;-67
2023/09/05 00:30:36;;;;;;;1.95;1.27;;;;;;;18.93;64.82;99948.13;337537;28;11745;-67
2023/09/05 00:30:47;;;;;;;1.63;1.20;;;;;;;18.93;64.87;99942.84;337620;28;18197;-67
2023/09/05 00:31:01;;;;;;;1.67;1.25;;;;;;;18.93;64.82;99945.50;340253;28;4669;-67
2023/09/05 00:31:14;;;;;;;1.90;1.40;;;;;;;18.93;64.74;99948.13;336295;28;18122;-68
2023/09/05 00:31:26;;;;;;;1.60;1.30;;;;;;;18.92;64.70;99947.28;336423;28;17996;-67
2023/09/05 00:31:40;;;;;;;1.40;1.10;;;;;;;18.92;64.73;99946.44;339046;28;5203;-67
2023/09/05 00:31:54;;;;;;;2.08;1.25;;;;;;;18.91;64.92;99945.63;336465;28;17920;-68
2023/09/05 00:32:07;;;;;;;2.25;1.33;;;;;;;18.90;64.77;99938.63;337333;28;11894;-67
2023/09/05 00:32:19;;;;;;;2.22;1.40;;;;;;;18.91;64.86;99950.00;336552;28;5228;-68
2023/09/05 00:32:32;;;;;;;2.85;1.40;;;;;;;18.90;64.70;99948.34;339194;28;4669;-68
2023/09/05 00:32:46;;;;;;;2.95;1.40;;;;;;;18.90;64.73;99943.06;339788;28;4851;-68
2023/09/05 00:32:59;;;;;;;2.40;1.40;;;;;;;18.90;64.72;99949.16;337644;28;17851;-68
2023/09/05 00:33:12;;;;;;;1.83;1.40;;;;;;;18.89;64.89;99941.34;337348;28;4685;-67
2023/09/05 00:33:24;;;;;;;1.75;1.25;;;;;;;18.88;65.17;99940.53;337874;28;17533;-67
2023/09/05 00:33:37;;;;;;;1.88;1.30;;;;;;;18.88;65.22;99951.06;331519;28;13259;-66
2023/09/05 00:33:49;;;;;;;1.95;1.40;;;;;;;18.88;65.16;99942.31;339532;28;4634;-67
2023/09/05 00:34:01;;;;;;;2.42;1.50;;;;;;;18.87;65.15;99943.25;340828;28;5181;-66
2023/09/05 00:34:14;;;;;;;3.20;1.58;;;;;;;18.86;65.03;99946.84;332698;28;18211;-67
2023/09/05 00:34:34;;;;;;;2.78;1.50;;;;;;;18.86;65.12;99946.84;340379;28;5493;-67
2023/09/05 00:34:47;;;;;;;1.55;1.38;;;;;;;18.84;65.08;99948.72;338754;28;17557;-67
2023/09/05 00:34:59;;;;;;;2.25;1.27;;;;;;;18.83;65.07;99947.84;336752;28;18042;-68
2023/09/05 00:35:13;;;;;;;3.97;1.25;;;;;;;18.83;65.12;99947.00;339244;28;4522;-67
2023/09/05 00:35:25;;;;;;;3.42;1.33;;;;;;;18.83;64.94;99952.28;337921;28;18156;-67
2023/09/05 00:35:37;;;;;;;3.13;1.30;;;;;;;18.84;64.97;99943.44;340546;28;4665;-66
2023/09/05 00:35:53;;;;;;;1.65;1.33;;;;;;;18.84;64.82;99952.19;335739;28;18189;-66
2023/09/05 00:36:05;;;;;;;1.92;1.30;;;;;;;18.86;64.64;99947.69;337688;28;18100;-68
2023/09/05 00:36:17;;;;;;;2.30;1.40;;;;;;;18.84;64.74;99946.09;340384;28;4493;-68
2023/09/05 00:36:29;;;;;;;2.45;1.60;;;;;;;18.83;64.79;99945.22;333102;28;19013;-68
2023/09/05 00:36:42;;;;;;;2.08;1.60;;;;;;;18.84;64.80;99943.44;339373;28;5358;-67
2023/09/05 00:36:55;;;;;;;1.83;1.38;;;;;;;18.84;64.76;99954.00;336411;28;17831;-67
2023/09/05 00:37:08;;;;;;;1.85;1.35;;;;;;;18.84;64.66;99943.44;340213;28;4870;-68
2023/09/05 00:37:23;;;;;;;2.30;1.50;;;;;;;18.83;64.50;99952.28;337602;28;18059;-67
2023/09/05 00:37:37;;;;;;;2.20;1.50;;;;;;;18.83;64.48;99947.00;337834;28;17775;-68
2023/09/05 00:37:49;;;;;;;1.80;1.38;;;;;;;18.82;64.48;99946.19;336622;28;17657;-68
2023/09/05 00:38:01;;;;;;;1.88;1.40;;;;;;;18.83;64.50;99941.75;339514;28;4658;-68
2023/09/05 00:38:13;;;;;;;1.75;1.40;;;;;;;18.84;64.49;99948.72;334395;28;4735;-68
2023/09/05 00:38:25;;;;;;;1.88;1.50;;;;;;;18.82;64.46;99942.69;336439;28;18061;-68
2023/09/05 00:38:36;;;;;;;2.03;1.40;;;;;;;18.82;64.45;99945.34;333731;28;5643;-68
2023/09/05 00:38:48;;;;;;;2.05;1.55;;;;;;;18.82;64.49;99945.34;336406;28;6090;-68
2023/09/05 00:39:02;;;;;;;1.95;1.40;;;;;;;18.81;64.46;99948.91;340326;28;4783;-68
2023/09/05 00:39:16;;;;;;;1.63;1.30;;;;;;;18.82;64.67;99950.59;337613;28;18778;-67
2023/09/05 00:39:28;;;;;;;1.70;1.23;;;;;;;18.81;64.58;99944.47;340279;28;4534;-67
2023/09/05 00:39:41;;;;;;;2.33;1.27;;;;;;;18.81;64.71;99944.47;336981;28;18111;-67
2023/09/05 00:39:54;;;;;;;2.50;1.50;;;;;;;18.82;64.73;99945.34;340410;28;4630;-67
2023/09/05 00:40:07;;;;;;;2.15;1.50;;;;;;;18.81;64.86;99943.63;336707;28;18506;-67
2023/09/05 00:40:19;;;;;;;1.52;1.40;;;;;;;18.82;64.69;99945.34;337738;28;16375;-66
2023/09/05 00:40:32;;;;;;;1.77;1.40;;;;;;;18.83;64.67;99947.00;339269;28;4479;-67
2023/09/05 00:40:45;;;;;;;2.17;1.20;;;;;;;18.82;64.57;99942.69;338892;28;11685;-67
2023/09/05 00:40:57;;;;;;;2.80;1.35;;;;;;;18.83;64.58;99941.75;337213;28;18124;-67
2023/09/05 00:41:10;;;;;;;2.83;1.40;;;;;;;18.82;64.61;99946.19;333127;28;5402;-67
2023/09/05 00:41:22;;;;;;;2.20;1.40;;;;;;;18.82;64.56;99951.44;337171;28;18151;-66
2023/09/05 00:41:37;;;;;;;1.90;1.50;;;;;;;18.82;64.44;99942.69;335918;28;4583;-67
2023/09/05 00:41:49;;;;;;;2.13;1.63;;;;;;;18.82;64.36;99940.06;337726;28;18543;-68
2023/09/05 00:42:05;;;;;;;1.92;1.48;;;;;;;18.81;64.75;99941.00;339368;28;4683;-67
2023/09/05 00:42:17;;;;;;;2.13;1.40;;;;;;;18.81;64.85;99943.63;336470;28;17875;-67
2023/09/05 00:42:31;;;;;;;2.03;1.35;;;;;;;18.81;64.78;99944.47;336518;28;17453;-68
2023/09/05 00:42:42;;;;;;;1.98;1.40;;;;;;;18.81;64.82;99943.63;338591;28;4538;-68
2023/09/05 00:42:56;;;;;;;2.08;1.42;;;;;;;18.81;64.77;99944.47;336676;28;11882;-68
2023/09/05 00:43:08;;;;;;;2.38;1.50;;;;;;;18.81;65.00;99943.63;340232;28;4839;-67
2023/09/05 00:43:20;;;;;;;2.40;1.40;;;;;;;18.81;64.99;99943.63;337233;28;12041;-67
2023/09/05 00:43:32;;;;;;;2.30;1.38;;;;;;;18.80;64.93;99948.06;338880;28;4560;-67
2023/09/05 00:43:44;;;;;;;2.25;1.40;;;;;;;18.81;64.91;99943.63;338649;28;12901;-67
2023/09/05 00:43:58;;;;;;;2.75;1.50;;;;;;;18.80;64.82;99936.69;337394;28;18673;-68
2023/09/05 00:44:13;;;;;;;2.38;1.40;;;;;;;18.79;64.77;99946.34;340274;28;5297;-67
2023/09/05 00:44:26;;;;;;;1.85;1.30;;;;;;;18.80;64.75;99949.84;336946;28;18158;-67
2023/09/05 00:44:38;;;;;;;1.80;1.40;;;;;;;18.80;64.83;99944.59;337013;28;17557;-67
2023/09/05 00:44:50;;;;;;;1.85;1.30;;;;;;;18.80;65.02;99947.22;336846;28;4716;-68
2023/09/05 00:45:05;;;;;;;2.10;1.38;;;;;;;18.78;65.08;99944.63;340061;28;5255;-67
2023/09/05 00:45:18;;;;;;;2.20;1.48;;;;;;;18.77;65.18;99943.81;337745;28;17911;-67
2023/09/05 00:45:31;;;;;;;2.22;1.45;;;;;;;18.77;65.58;99948.19;340027;28;4652;-67
2023/09/05 00:45:49;;;;;;;2.15;1.40;;;;;;;18.76;65.84;99941.25;337141;28;17399;-67
2023/09/05 00:46:01;;;;;;;1.63;1.40;;;;;;;18.76;65.56;99942.09;336778;28;18015;-66
2023/09/05 00:46:13;;;;;;;1.67;1.38;;;;;;;18.79;65.30;99942.84;332978;28;18343;-67
2023/09/05 00:46:28;;;;;;;1.73;1.40;;;;;;;18.79;65.33;99941.09;340181;28;5134;-67
2023/09/05 00:46:44;;;;;;;2.05;1.55;;;;;;;18.79;65.22;99945.47;337424;28;18069;-67
2023/09/05 00:46:58;;;;;;;2.88;1.70;;;;;;;18.79;65.05;99945.47;334874;28;18938;-67
2023/09/05 00:47:11;;;;;;;2.50;1.58;;;;;;;18.77;65.01;99943.81;337498;28;18041;-67
2023/09/05 00:47:28;;;;;;;3.35;1.50;;;;;;;18.78;64.85;99944.63;337497;28;19129;-67
2023/09/05 00:47:41;;;;;;;3.03;1.50;;;;;;;18.80;64.90;99947.22;337672;28;17793;-67
2023/09/05 00:47:53;;;;;;;2.15;1.50;;;;;;;18.79;64.72;99945.47;336852;28;18463;-68
2023/09/05 00:48:07;;;;;;;2.03;1.27;;;;;;;18.79;64.48;99940.22;339589;28;4863;-67
2023/09/05 00:48:27;;;;;;;1.60;1.13;;;;;;;18.80;64.86;99942.78;337589;28;17915;-67
2023/09/05 00:48:42;;;;;;;1.50;1.27;;;;;;;18.81;64.58;99943.63;337714;28;17786;-67
2023/09/05 00:48:57;;;;;;;1.50;1.10;;;;;;;18.81;64.38;99944.47;336160;28;19783;-67
2023/09/05 00:49:10;;;;;;;2.17;1.00;;;;;;;18.82;64.43;99940.91;337438;28;17757;-67
2023/09/05 00:49:27;;;;;;;2.78;1.30;;;;;;;18.84;64.43;99940.81;337495;28;11527;-67
2023/09/05 00:49:47;;;;;;;2.05;1.45;;;;;;;18.84;64.24;99949.56;337322;28;17677;-66
2023/09/05 00:49:59;;;;;;;1.85;1.33;;;;;;;18.84;64.04;99943.44;337375;28;18020;-67
2023/09/05 00:50:11;;;;;;;2.00;1.20;;;;;;;18.85;63.89;99945.97;340390;28;4818;-66
2023/09/05 00:50:24;;;;;;;1.80;1.10;;;;;;;18.85;63.88;99942.50;337485;28;18580;-68
2023/09/05 00:50:40;;;;;;;1.50;1.23;;;;;;;18.86;63.98;99941.56;341381;28;5443;-67
2023/09/05 00:50:52;;;;;;;1.55;1.20;;;;;;;18.86;63.82;99939.78;336910;28;16530;-66
2023/09/05 00:51:04;;;;;;;1.27;1.10;;;;;;;18.86;63.68;99941.56;336102;28;18186;-67
2023/09/05 00:51:18;;;;;;;1.35;1.15;;;;;;;18.83;63.67;99947.00;339930;28;4469;-66
2023/09/05 00:51:33;;;;;;;1.58;1.35;;;;;;;18.80;64.27;99941.94;334684;28;18397;-67
2023/09/05 00:51:50;;;;;;;2.78;1.50;;;;;;;18.81;63.87;99943.63;337309;28;17972;-67
2023/09/05 00:52:03;;;;;;;3.65;1.38;;;;;;;18.82;63.74;99945.34;337278;28;18897;-67
2023/09/05 00:52:17;;;;;;;3.55;1.33;;;;;;;18.82;63.86;99945.34;340151;28;4602;-68
2023/09/05 00:52:31;;;;;;;3.17;1.52;;;;;;;18.82;64.17;99938.28;338230;28;17740;-67
2023/09/05 00:52:46;;;;;;;2.30;1.50;;;;;;;18.82;64.14;99940.06;338926;28;4845;-67
2023/09/05 00:52:58;;;;;;;1.60;1.30;;;;;;;18.80;64.32;99947.22;337151;28;17882;-68
2023/09/05 00:53:10;;;;;;;1.63;1.30;;;;;;;18.81;64.13;99938.34;340143;28;4569;-67
2023/09/05 00:53:24;;;;;;;3.10;1.40;;;;;;;18.82;64.00;99940.06;340234;28;5433;-68
2023/09/05 00:53:37;;;;;;;3.05;1.42;;;;;;;18.81;64.04;99941.00;336859;28;17770;-68
2023/09/05 00:53:50;;;;;;;2.70;1.45;;;;;;;18.80;64.27;99942.78;336999;28;5306;-67
2023/09/05 00:54:04;;;;;;;2.20;1.42;;;;;;;18.80;64.11;99941.94;339996;28;4638;-66
2023/09/05 00:54:17;;;;;;;2.10;1.40;;;;;;;18.82;64.12;99937.44;337713;28;17948;-66
2023/09/05 00:54:30;;;;;;;2.15;1.40;;;;;;;18.81;64.15;99938.34;334098;28;18094;-67
2023/09/05 00:54:42;;;;;;;2.00;1.33;;;;;;;18.82;64.25;99940.91;339544;28;4570;-67
2023/09/05 00:54:54;;;;;;;1.83;1.27;;;;;;;18.82;64.18;99938.28;337497;28;18447;-68
2023/09/05 00:55:07;;;;;;;1.60;1.15;;;;;;;18.83;64.12;99941.75;340362;28;4557;-67
2023/09/05 00:55:19;;;;;;;2.00;1.42;;;;;;;18.82;64.12;99934.81;335598;28;19008;-68
2023/09/05 00:55:31;;;;;;;2.22;1.50;;;;;;;18.82;64.07;99935.63;340334;28;4537;-66
2023/09/05 00:55:43;;;;;;;2.05;1.40;;;;;;;18.83;64.11;99941.75;338738;28;4717;-66
2023/09/05 00:55:55;;;;;;;1.77;1.27;;;;;;;18.82;64.00;99940.91;336068;28;18044;-66
2023/09/05 00:56:07;;;;;;;1.60;1.20;;;;;;;18.82;63.87;99938.28;340025;28;4663;-67
2023/09/05 00:56:19;;;;;;;2.42;1.38;;;;;;;18.82;63.69;99942.69;337429;28;12114;-67
2023/09/05 00:56:32;;;;;;;2.58;1.52;;;;;;;18.83;63.84;99937.31;340601;28;4508;-67
2023/09/05 00:56:45;;;;;;;2.97;1.60;;;;;;;18.83;63.55;99939.94;339738;28;5533;-66
2023/09/05 00:56:57;;;;;;;2.08;1.38;;;;;;;18.83;63.86;99941.75;336778;28;18320;-67
2023/09/05 00:57:17;;;;;;;1.63;1.23;;;;;;;18.83;63.60;99936.47;337580;28;4737;-66
2023/09/05 00:57:30;;;;;;;1.65;1.35;;;;;;;18.84;63.63;99939.03;337651;28;19193;-67
2023/09/05 00:57:44;;;;;;;1.65;1.30;;;;;;;18.83;63.57;99944.38;337828;28;18867;-66
2023/09/05 00:58:00;;;;;;;1.52;1.20;;;;;;;18.83;63.68;99939.09;337442;28;17974;-66
2023/09/05 00:58:12;;;;;;;1.63;1.30;;;;;;;18.85;63.68;99942.50;336636;28;17978;-66
2023/09/05 00:58:24;;;;;;;1.92;1.52;;;;;;;18.85;63.76;99940.69;339040;28;4698;-66
2023/09/05 00:58:36;;;;;;;2.58;1.60;;;;;;;18.86;63.69;99938.94;336318;28;18274;-68
2023/09/05 00:58:48;;;;;;;2.70;1.40;;;;;;;18.86;63.77;99938.94;338922;28;4598;-67
2023/09/05 00:59:02;;;;;;;2.22;1.38;;;;;;;18.85;63.67;99939.84;333512;28;5502;-68
2023/09/05 00:59:14;;;;;;;1.45;1.27;;;;;;;18.85;63.71;99939.84;340230;28;4736;-67
2023/09/05 00:59:26;;;;;;;1.58;1.38;;;;;;;18.85;63.74;99939.84;337419;28;18128;-68
2023/09/05 00:59:38;;;;;;;2.10;1.50;;;;;;;18.85;63.81;99939.84;339289;28;4487;-68
2023/09/05 00:59:51;;;;;;;2.17;1.55;;;;;;;18.83;63.84;99942.59;340240;28;12199;-68
2023/09/05 01:00:05;;;;;;;2.92;1.63;;;;;;;18.84;63.70;99943.44;331951;28;19083;-67
2023/09/05 01:00:18;;;;;;;2.90;1.60;;;;;;;18.85;63.79;99942.50;336664;28;18057;-66
2023/09/05 01:00:30;;;;;;;1.95;1.25;;;;;;;18.85;63.70;99939.84;338939;28;5333;-66
2023/09/05 01:00:42;;;;;;;2.10;1.30;;;;;;;18.86;63.71;99938.94;336297;28;18396;-66
2023/09/05 01:00:54;;;;;;;1.80;1.33;;;;;;;18.87;63.60;99948.50;340262;28;4669;-66
2023/09/05 01:01:06;;;;;;;1.42;1.25;;;;;;;18.88;63.59;99942.31;333509;28;18222;-67
2023/09/05 01:01:18;;;;;;;1.73;1.30;;;;;;;18.87;63.60;99943.25;338473;28;5408;-66
2023/09/05 01:01:30;;;;;;;2.08;1.30;;;;;;;18.89;63.45;99944.00;340501;28;5570;-67
2023/09/05 01:01:42;;;;;;;2.45;1.27;;;;;;;18.88;63.25;99939.69;333448;28;6458;-67
2023/09/05 01:01:55;;;;;;;2.15;1.10;;;;;;;18.90;63.15;99943.06;340311;28;4683;-67
2023/09/05 01:02:07;;;;;;;1.90;1.30;;;;;;;18.90;63.24;99940.44;337439;28;19074;-68
2023/09/05 01:02:19;;;;;;;2.20;1.50;;;;;;;18.90;63.60;99937.78;339242;28;4573;-67